createdAt,value
2019-05-21T00:02:15.264Z,77.25
2019-05-21T00:04:49.200Z,77.50
2019-05-21T00:07:20.885Z,77.09
2019-05-21T00:09:54.212Z,75.91
2019-05-21T00:12:29.950Z,75.66
2019-05-21T00:15:02.836Z,75.95
2019-05-21T00:17:36.642Z,75.82
2019-05-21T00:20:10.490Z,75.79
2019-05-21T00:22:44.161Z,75.40
2019-05-21T00:25:17.507Z,74.62
2019-05-21T00:27:49.225Z,75.38
2019-05-21T00:30:58.850Z,75.38
2019-05-21T00:34:06.214Z,75.37
2019-05-21T00:37:20.498Z,75.85
2019-05-21T00:40:28.644Z,76.71
2019-05-21T00:43:01.565Z,76.86
2019-05-21T00:45:34.627Z,76.84
2019-05-21T00:48:08.194Z,76.45
2019-05-21T00:50:40.957Z,75.93
2019-05-21T00:53:13.037Z,74.97
2019-05-21T00:55:49.681Z,74.52
2019-05-21T00:58:21.444Z,74.35
2019-05-21T01:00:54.807Z,75.03
2019-05-21T01:03:27.218Z,74.92
2019-05-21T01:06:01.960Z,75.25
2019-05-21T01:08:36.546Z,75.16
2019-05-21T01:11:10.915Z,74.26
2019-05-21T01:13:46.544Z,74.90
2019-05-21T01:16:18.703Z,75.17
2019-05-21T01:18:51.104Z,76.05
2019-05-21T01:21:24.599Z,76.91
2019-05-21T01:23:57.487Z,77.41
2019-05-21T01:26:29.807Z,77.72
2019-05-21T01:29:07.639Z,78.12
2019-05-21T01:31:39.288Z,78.88
2019-05-21T01:34:12.219Z,78.74
2019-05-21T01:36:45.167Z,79.29
2019-05-21T01:39:17.684Z,78.92
2019-05-21T01:41:49.641Z,79.03
2019-05-21T01:44:24.949Z,79.37
2019-05-21T01:46:58.984Z,80.16
2019-05-21T01:49:31.767Z,80.19
2019-05-21T01:52:03.878Z,79.57
2019-05-21T01:54:36.926Z,79.16
2019-05-21T01:57:08.659Z,80.02
2019-05-21T01:59:41.461Z,80.95
2019-05-21T02:02:14.840Z,81.96
2019-05-21T02:04:49.025Z,82.28
2019-05-21T02:07:21.279Z,82.17
2019-05-21T02:09:59.724Z,80.66
2019-05-21T02:12:32.102Z,81.19
2019-05-21T02:15:08.866Z,81.20
2019-05-21T02:17:43.160Z,80.98
2019-05-21T02:20:16.899Z,79.55
2019-05-21T02:22:50.074Z,78.26
2019-05-21T02:25:22.716Z,77.79
2019-05-21T02:27:55.059Z,77.50
2019-05-21T02:30:29.818Z,77.79
2019-05-21T02:33:02.704Z,77.41
2019-05-21T02:35:52.865Z,77.49
2019-05-21T02:38:10.451Z,76.96
2019-05-21T02:40:46.069Z,77.04
2019-05-21T02:43:18.069Z,78.62
2019-05-21T02:45:50.118Z,79.79
2019-05-21T02:48:22.870Z,79.31
2019-05-21T02:50:54.598Z,78.64
2019-05-21T02:53:27.034Z,78.08
2019-05-21T02:55:59.743Z,77.82
2019-05-21T02:58:32.403Z,79.68
2019-05-21T03:01:27.895Z,81.01
2019-05-21T03:03:59.870Z,80.73
2019-05-21T03:06:32.358Z,80.87
2019-05-21T03:09:09.987Z,81.02
2019-05-21T03:11:44.385Z,80.83
2019-05-21T03:14:19.083Z,80.47
2019-05-21T03:16:52.395Z,79.58
2019-05-21T03:19:26.763Z,79.21
2019-05-21T03:22:00.636Z,79.25
2019-05-21T03:24:33.980Z,78.52
2019-05-21T03:27:07.771Z,78.69
2019-05-21T03:29:41.121Z,76.90
2019-05-21T03:32:14.359Z,77.04
2019-05-21T03:34:47.588Z,76.97
2019-05-21T03:37:19.202Z,77.30
2019-05-21T03:39:51.510Z,77.79
2019-05-21T03:42:23.959Z,77.64
2019-05-21T03:45:00.531Z,76.74
2019-05-21T03:47:33.956Z,76.03
2019-05-21T03:50:07.894Z,76.44
2019-05-21T03:52:42.101Z,76.42
2019-05-21T03:55:16.775Z,76.98
2019-05-21T03:57:50.736Z,76.48
2019-05-21T04:00:25.951Z,78.22
2019-05-21T04:03:00.232Z,82.94
2019-05-21T04:05:32.179Z,82.94
2019-05-21T04:08:04.580Z,80.97
2019-05-21T04:10:38.287Z,78.92
2019-05-21T04:13:10.840Z,78.72
2019-05-21T04:16:17.002Z,78.48
2019-05-21T04:19:03.119Z,78.42
2019-05-21T04:21:38.822Z,78.44
2019-05-21T04:24:13.819Z,79.10
2019-05-21T04:26:47.218Z,81.02
2019-05-21T04:29:21.077Z,81.91
2019-05-21T04:31:54.711Z,81.87
2019-05-21T04:34:30.256Z,81.39
2019-05-21T04:37:10.508Z,82.34
2019-05-21T04:39:39.454Z,82.56
2019-05-21T04:42:14.829Z,81.97
2019-05-21T04:44:47.168Z,81.33
2019-05-21T04:47:23.861Z,80.39
2019-05-21T04:49:57.554Z,78.11
2019-05-21T04:52:30.654Z,79.09
2019-05-21T04:55:06.563Z,78.49
2019-05-21T04:57:40.474Z,76.54
2019-05-21T05:00:13.814Z,77.31
2019-05-21T05:02:48.248Z,77.68
2019-05-21T05:05:22.057Z,77.79
2019-05-21T05:07:53.665Z,76.64
2019-05-21T05:10:26.229Z,76.26
2019-05-21T05:12:57.851Z,76.14
2019-05-21T05:15:31.924Z,77.00
2019-05-21T05:18:03.532Z,77.12
2019-05-21T05:20:36.429Z,78.51
2019-05-21T05:23:08.366Z,78.54
2019-05-21T05:25:40.127Z,78.61
2019-05-21T05:28:11.806Z,80.44
2019-05-21T05:30:43.657Z,82.60
2019-05-21T05:33:16.319Z,83.60
2019-05-21T05:35:48.244Z,84.30
2019-05-21T05:38:20.538Z,81.92
2019-05-21T05:40:52.399Z,81.51
2019-05-21T05:43:24.397Z,80.75
2019-05-21T05:45:56.543Z,81.03
2019-05-21T05:48:29.417Z,80.62
2019-05-21T05:51:03.256Z,80.10
2019-05-21T05:53:53.978Z,78.26
2019-05-21T05:56:25.706Z,77.68
2019-05-21T05:58:58.416Z,76.65
2019-05-21T06:01:33.016Z,76.07
2019-05-21T06:04:05.536Z,75.39
2019-05-21T06:06:37.307Z,75.48
2019-05-21T06:09:09.255Z,76.91
2019-05-21T06:11:41.193Z,76.88
2019-05-21T06:14:13.096Z,76.50
2019-05-21T06:16:45.226Z,76.90
2019-05-21T06:19:17.870Z,76.38
2019-05-21T06:21:49.793Z,76.42
2019-05-21T06:24:21.974Z,75.89
2019-05-21T06:26:53.920Z,76.47
2019-05-21T06:29:26.023Z,75.76
2019-05-21T06:31:58.805Z,74.84
2019-05-21T06:34:32.290Z,75.27
2019-05-21T06:37:05.201Z,75.21
2019-05-21T06:39:37.413Z,74.81
2019-05-21T06:42:10.660Z,76.34
2019-05-21T06:44:42.931Z,73.90
2019-05-21T06:47:14.938Z,74.69
2019-05-21T06:49:51.564Z,75.06
2019-05-21T06:52:24.336Z,73.12
2019-05-21T06:54:56.630Z,73.82
2019-05-21T06:57:29.209Z,73.26
2019-05-21T07:00:03.049Z,71.33
2019-05-21T07:02:35.595Z,71.91
2019-05-21T07:05:08.535Z,71.05
2019-05-21T07:07:40.933Z,72.67
2019-05-21T07:10:15.157Z,71.95
2019-05-21T07:12:47.936Z,72.48
2019-05-21T07:15:20.369Z,71.74
2019-05-21T07:17:55.026Z,71.61
2019-05-21T07:20:27.304Z,70.94
2019-05-21T07:23:00.271Z,70.63
2019-05-21T07:25:33.355Z,70.44
2019-05-21T07:28:08.912Z,70.88
2019-05-21T07:30:40.898Z,70.57
2019-05-21T07:33:12.786Z,71.09
2019-05-21T07:35:47.274Z,71.81
2019-05-21T07:38:20.979Z,72.32
2019-05-21T07:40:53.049Z,71.09
2019-05-21T07:43:25.368Z,72.33
2019-05-21T07:45:58.515Z,73.31
2019-05-21T07:48:31.184Z,73.57
2019-05-21T07:51:03.121Z,73.99
2019-05-21T07:53:35.684Z,73.58
2019-05-21T07:56:10.432Z,74.11
2019-05-21T07:58:43.379Z,73.74
2019-05-21T08:01:20.550Z,73.49
2019-05-21T08:03:55.148Z,72.52
2019-05-21T08:06:29.750Z,73.04
2019-05-21T08:09:13.418Z,73.11
2019-05-21T08:11:39.408Z,72.78
2019-05-21T08:14:12.770Z,74.84
2019-05-21T08:16:45.471Z,72.41
2019-05-21T08:19:17.972Z,72.75
2019-05-21T08:21:50.542Z,71.81
2019-05-21T08:24:23.738Z,71.04
2019-05-21T08:26:56.700Z,70.50
2019-05-21T08:29:28.544Z,71.44
2019-05-21T08:32:01.174Z,67.95
2019-05-21T08:34:34.007Z,68.33
2019-05-21T08:37:06.768Z,68.72
2019-05-21T08:39:38.997Z,69.25
2019-05-21T08:42:10.581Z,69.19
2019-05-21T08:44:42.642Z,69.42
2019-05-21T08:47:15.033Z,68.54
2019-05-21T08:49:46.637Z,68.83
2019-05-21T08:52:18.880Z,69.65
2019-05-21T08:54:51.428Z,70.51
2019-05-21T08:57:23.237Z,69.13
2019-05-21T08:59:55.793Z,69.19
2019-05-21T09:02:27.555Z,68.23
2019-05-21T09:05:00.179Z,68.52
2019-05-21T09:07:32.102Z,65.80
2019-05-21T09:10:04.498Z,65.06
2019-05-21T09:12:36.308Z,64.99
2019-05-21T09:15:10.250Z,66.16
2019-05-21T09:17:42.485Z,66.26
2019-05-21T09:20:16.023Z,65.03
2019-05-21T09:22:48.295Z,65.64
2019-05-21T09:25:21.161Z,64.26
2019-05-21T09:27:53.274Z,64.26
2019-05-21T09:30:25.810Z,64.48
2019-05-21T09:32:58.108Z,65.12
2019-05-21T09:35:29.787Z,65.10
2019-05-21T09:38:02.055Z,64.91
2019-05-21T09:40:34.076Z,63.65
2019-05-21T09:43:06.734Z,64.13
2019-05-21T09:45:38.649Z,64.90
2019-05-21T09:48:10.590Z,65.11
2019-05-21T09:50:42.362Z,65.00
2019-05-21T09:53:15.379Z,64.18
2019-05-21T09:55:47.232Z,64.95
2019-05-21T09:58:27.946Z,64.35
2019-05-21T10:01:14.049Z,63.88
2019-05-21T10:03:50.018Z,63.63
2019-05-21T10:06:21.962Z,62.96
2019-05-21T10:08:54.105Z,62.78
2019-05-21T10:11:27.816Z,63.85
2019-05-21T10:14:00.374Z,62.44
2019-05-21T10:16:32.132Z,63.37
2019-05-21T10:19:04.729Z,62.05
2019-05-21T10:21:36.745Z,62.94
2019-05-21T10:24:08.412Z,63.10
2019-05-21T10:26:40.498Z,63.30
2019-05-21T10:29:12.521Z,63.72
2019-05-21T10:31:45.106Z,64.66
2019-05-21T10:34:17.301Z,63.69
2019-05-21T10:36:49.451Z,64.09
2019-05-21T10:39:21.466Z,63.32
2019-05-21T10:41:53.383Z,63.52
2019-05-21T10:44:25.699Z,63.49
2019-05-21T10:46:57.582Z,63.65
2019-05-21T10:49:32.059Z,64.27
2019-05-21T10:52:04.545Z,64.13
2019-05-21T10:54:36.792Z,64.62
2019-05-21T10:57:08.914Z,64.14
2019-05-21T10:59:40.877Z,64.70
2019-05-21T11:02:21.457Z,64.73
2019-05-21T11:04:59.712Z,64.59
2019-05-21T11:07:33.069Z,64.96
2019-05-21T11:10:08.343Z,65.36
2019-05-21T11:12:41.418Z,65.46
2019-05-21T11:15:14.676Z,64.70
2019-05-21T11:18:07.074Z,65.51
2019-05-21T11:20:20.624Z,65.94
2019-05-21T11:22:52.696Z,65.94
2019-05-21T11:25:26.571Z,66.53
2019-05-21T11:27:59.352Z,66.76
2019-05-21T11:30:33.235Z,67.24
2019-05-21T11:33:06.268Z,68.22
2019-05-21T11:35:38.303Z,68.31
2019-05-21T11:38:10.211Z,69.01
2019-05-21T11:40:42.814Z,69.58
2019-05-21T11:43:14.767Z,70.31
2019-05-21T11:45:46.663Z,70.94
2019-05-21T11:48:18.979Z,70.87
2019-05-21T11:50:51.277Z,71.10
2019-05-21T11:53:22.902Z,72.04
2019-05-21T11:55:54.975Z,72.17
2019-05-21T11:58:27.188Z,72.68
2019-05-21T12:00:59.223Z,72.80
2019-05-21T12:03:30.957Z,73.50
2019-05-21T12:06:02.696Z,74.10
2019-05-21T12:08:36.737Z,74.05
2019-05-21T12:11:08.895Z,75.20
2019-05-21T12:13:41.052Z,75.91
2019-05-21T12:16:12.932Z,75.67
2019-05-21T12:18:44.847Z,75.79
2019-05-21T12:21:17.233Z,75.66
2019-05-21T12:23:49.008Z,76.17
2019-05-21T12:26:20.969Z,76.20
2019-05-21T12:28:53.227Z,76.49
2019-05-21T12:31:25.258Z,77.22
2019-05-21T12:33:57.170Z,78.83
2019-05-21T12:36:29.081Z,79.78
2019-05-21T12:39:13.589Z,81.78
2019-05-21T12:41:35.072Z,83.77
2019-05-21T12:44:07.285Z,84.73
2019-05-21T12:46:39.023Z,85.68
2019-05-21T12:49:10.757Z,86.58
2019-05-21T12:51:44.978Z,87.56
2019-05-21T12:54:16.789Z,86.96
2019-05-21T12:56:48.589Z,86.85
2019-05-21T12:59:20.662Z,86.55
2019-05-21T13:01:52.699Z,86.11
2019-05-21T13:04:25.210Z,85.49
2019-05-21T13:06:57.472Z,85.66
2019-05-21T13:09:33.019Z,86.24
2019-05-21T13:12:03.741Z,86.42
2019-05-21T13:14:37.407Z,86.81
2019-05-21T13:17:09.027Z,86.11
2019-05-21T13:19:41.061Z,87.12
2019-05-21T13:22:12.875Z,87.06
2019-05-21T13:24:44.804Z,86.85
2019-05-21T13:27:16.950Z,86.87
2019-05-21T13:29:49.093Z,86.64
2019-05-21T13:32:21.338Z,86.20
2019-05-21T13:34:53.736Z,86.87
2019-05-21T13:37:25.607Z,86.75
2019-05-21T13:39:58.467Z,87.06
2019-05-21T13:42:30.205Z,87.53
2019-05-21T13:45:02.675Z,88.39
2019-05-21T13:47:36.012Z,88.27
2019-05-21T13:50:08.108Z,88.79
2019-05-21T13:52:39.936Z,88.61
2019-05-21T13:55:12.423Z,89.07
2019-05-21T13:57:44.227Z,90.06
2019-05-21T14:00:21.663Z,89.72
2019-05-21T14:02:53.685Z,90.43
2019-05-21T14:05:25.757Z,90.95
2019-05-21T14:07:58.291Z,92.82
2019-05-21T14:10:30.515Z,92.35
2019-05-21T14:13:02.749Z,93.37
2019-05-21T14:15:35.033Z,95.23
2019-05-21T14:18:07.264Z,97.08
2019-05-21T14:20:39.447Z,96.95
2019-05-21T14:23:11.795Z,95.25
2019-05-21T14:25:44.513Z,95.95
2019-05-21T14:28:16.439Z,95.90
2019-05-21T14:30:48.779Z,97.14
2019-05-21T14:33:20.930Z,97.63
2019-05-21T14:35:53.052Z,97.96
2019-05-21T14:38:24.788Z,98.19
2019-05-21T14:40:56.540Z,98.39
2019-05-21T14:43:29.478Z,98.27
2019-05-21T14:46:01.146Z,98.43
2019-05-21T14:48:32.876Z,98.30
2019-05-21T14:51:05.499Z,98.34
2019-05-21T14:53:37.498Z,98.89
2019-05-21T14:56:09.430Z,97.93
2019-05-21T14:58:41.191Z,97.25
2019-05-21T15:01:12.979Z,97.02
2019-05-21T15:03:44.773Z,97.16
2019-05-21T15:06:17.533Z,97.05
2019-05-21T15:08:50.374Z,96.77
2019-05-21T15:11:23.819Z,96.81
2019-05-21T15:13:57.516Z,97.19
2019-05-21T15:16:29.994Z,97.26
2019-05-21T15:19:05.120Z,96.31
2019-05-21T15:21:49.011Z,96.44
2019-05-21T15:24:21.540Z,95.24
2019-05-21T15:26:53.508Z,94.91
2019-05-21T15:29:30.658Z,94.80
2019-05-21T15:32:05.063Z,95.10
2019-05-21T15:34:37.919Z,95.29
2019-05-21T15:37:11.374Z,95.19
2019-05-21T15:39:46.466Z,95.55
2019-05-21T15:42:19.660Z,95.77
2019-05-21T15:44:51.802Z,96.05
2019-05-21T15:47:27.460Z,96.14
2019-05-21T15:50:01.265Z,95.89
2019-05-21T15:52:33.523Z,96.19
2019-05-21T15:55:07.819Z,96.17
2019-05-21T15:57:42.640Z,96.50
2019-05-21T16:00:17.959Z,96.84
2019-05-21T16:02:49.751Z,97.02
2019-05-21T16:05:21.454Z,96.96
2019-05-21T16:07:54.406Z,97.45
2019-05-21T16:10:28.019Z,97.70
2019-05-21T16:13:00.374Z,97.86
2019-05-21T16:15:32.573Z,98.44
2019-05-21T16:18:05.076Z,98.97
2019-05-21T16:20:42.101Z,99.17
2019-05-21T16:23:12.545Z,99.84
2019-05-21T16:25:46.964Z,100.00
2019-05-21T16:28:19.193Z,100.00
2019-05-21T16:30:51.395Z,100.00
2019-05-21T16:33:24.773Z,100.00
2019-05-21T16:35:57.510Z,100.00
2019-05-21T16:38:30.533Z,100.00
2019-05-21T16:41:02.493Z,100.00
2019-05-21T16:43:34.529Z,100.00
2019-05-21T16:46:06.074Z,100.00
2019-05-21T16:48:37.702Z,100.00
2019-05-21T16:51:13.528Z,100.00
2019-05-21T16:53:47.821Z,100.00
2019-05-21T16:56:20.595Z,100.00
2019-05-21T16:58:53.413Z,100.00
2019-05-21T17:01:27.208Z,100.00
2019-05-21T17:04:02.446Z,100.00
2019-05-21T17:06:35.799Z,100.00
2019-05-21T17:09:11.948Z,100.00
2019-05-21T17:11:59.000Z,100.00
2019-05-21T17:14:21.259Z,100.00
2019-05-21T17:16:53.893Z,100.00
2019-05-21T17:19:27.612Z,100.00
2019-05-21T17:21:59.939Z,100.00
2019-05-21T17:24:31.873Z,100.00
2019-05-21T17:27:03.581Z,100.00
2019-05-21T17:29:35.803Z,100.00
2019-05-21T17:32:08.203Z,100.00
2019-05-21T17:34:40.957Z,100.00
2019-05-21T17:37:13.835Z,100.00
2019-05-21T17:39:47.333Z,100.00
2019-05-21T17:42:20.353Z,100.00
2019-05-21T17:44:53.745Z,100.00
2019-05-21T17:47:26.938Z,100.00
2019-05-21T17:50:00.442Z,100.00
2019-05-21T17:52:32.785Z,100.00
2019-05-21T17:55:06.504Z,100.00
2019-05-21T17:57:41.462Z,100.00
2019-05-21T18:00:18.485Z,100.00
2019-05-21T18:02:52.669Z,100.00
2019-05-21T18:05:30.484Z,100.00
2019-05-21T18:08:05.561Z,100.00
2019-05-21T18:10:45.710Z,100.00
2019-05-21T18:13:20.540Z,100.00
2019-05-21T18:15:56.992Z,100.00
2019-05-21T18:18:30.402Z,100.00
2019-05-21T18:21:05.562Z,100.00
2019-05-21T18:23:39.026Z,100.00
2019-05-21T18:26:11.397Z,100.00
2019-05-21T18:28:44.364Z,100.00
2019-05-21T18:31:18.553Z,100.00
2019-05-21T18:33:50.998Z,100.00
2019-05-21T18:36:24.263Z,100.00
2019-05-21T18:38:58.584Z,100.00
2019-05-21T18:41:32.521Z,100.00
2019-05-21T18:44:07.609Z,100.00
2019-05-21T18:46:41.285Z,100.00
2019-05-21T18:49:14.042Z,100.00
2019-05-21T18:51:46.930Z,100.00
2019-05-21T18:54:19.499Z,100.00
2019-05-21T18:56:52.778Z,100.00
2019-05-21T18:59:26.618Z,100.00
2019-05-21T19:02:00.096Z,100.00
2019-05-21T19:04:32.815Z,100.00
2019-05-21T19:07:10.695Z,100.00
2019-05-21T19:09:41.743Z,100.00
2019-05-21T19:12:14.064Z,100.00
2019-05-21T19:14:48.915Z,100.00
2019-05-21T19:17:34.803Z,100.00
2019-05-21T19:19:55.672Z,100.00
2019-05-21T19:22:28.121Z,100.00
2019-05-21T19:25:04.362Z,100.00
2019-05-21T19:27:38.212Z,100.00
2019-05-21T19:30:12.919Z,100.00
2019-05-21T19:32:46.652Z,100.00
2019-05-21T19:35:18.636Z,100.00
2019-05-21T19:37:50.235Z,100.00
2019-05-21T19:40:23.388Z,100.00
2019-05-21T19:42:55.832Z,100.00
2019-05-21T19:45:29.702Z,100.00
2019-05-21T19:48:01.305Z,100.00
2019-05-21T19:50:33.606Z,100.00
2019-05-21T19:53:06.494Z,100.00
2019-05-21T19:55:41.092Z,100.00
2019-05-21T19:58:13.041Z,100.00
2019-05-21T20:00:53.890Z,100.00
2019-05-21T20:03:26.891Z,100.00
2019-05-21T20:05:59.290Z,100.00
2019-05-21T20:08:31.356Z,100.00
2019-05-21T20:11:04.009Z,100.00
2019-05-21T20:13:35.798Z,100.00
2019-05-21T20:16:08.094Z,100.00
2019-05-21T20:18:40.872Z,100.00
2019-05-21T20:21:14.230Z,100.00
2019-05-21T20:23:47.044Z,100.00
2019-05-21T20:26:21.568Z,100.00
2019-05-21T20:28:53.518Z,100.00
2019-05-21T20:31:25.605Z,100.00
2019-05-21T20:33:58.024Z,100.00
2019-05-21T20:36:30.183Z,100.00
2019-05-21T20:39:02.278Z,100.00
2019-05-21T20:41:37.049Z,100.00
2019-05-21T20:44:12.091Z,100.00
2019-05-21T20:46:44.159Z,100.00
2019-05-21T20:49:16.966Z,100.00
2019-05-21T20:51:48.850Z,100.00
2019-05-21T20:54:21.744Z,100.00
2019-05-21T20:56:54.833Z,100.00
2019-05-21T20:59:27.271Z,100.00
2019-05-21T21:01:59.995Z,100.00
2019-05-21T21:04:32.366Z,100.00
2019-05-21T21:07:05.362Z,100.00
2019-05-21T21:09:37.968Z,100.00
2019-05-21T21:12:11.686Z,100.00
2019-05-21T21:14:45.160Z,100.00
2019-05-21T21:17:17.084Z,100.00
2019-05-21T21:19:49.239Z,100.00
2019-05-21T21:22:21.080Z,100.00
2019-05-21T21:24:52.863Z,100.00
2019-05-21T21:27:26.308Z,100.00
2019-05-21T21:29:58.124Z,100.00
2019-05-21T21:32:30.001Z,100.00
2019-05-21T21:35:02.118Z,100.00
2019-05-21T21:37:36.651Z,100.00
2019-05-21T21:40:11.979Z,100.00
2019-05-21T21:42:44.785Z,100.00
2019-05-21T21:45:16.724Z,100.00
2019-05-21T21:47:49.232Z,100.00
2019-05-21T21:50:21.677Z,100.00
2019-05-21T21:52:54.457Z,100.00
2019-05-21T21:55:26.587Z,100.00
2019-05-21T21:57:58.626Z,100.00
2019-05-21T22:01:01.106Z,100.00
2019-05-21T22:03:37.082Z,100.00
2019-05-21T22:06:11.988Z,100.00
2019-05-21T22:08:44.556Z,100.00
2019-05-21T22:11:18.445Z,100.00
2019-05-21T22:13:50.555Z,100.00
2019-05-21T22:16:23.881Z,100.00
2019-05-21T22:18:55.855Z,100.00
2019-05-21T22:21:28.365Z,100.00
2019-05-21T22:24:00.251Z,100.00
2019-05-21T22:26:32.812Z,100.00
2019-05-21T22:29:04.778Z,100.00
2019-05-21T22:31:36.932Z,100.00
2019-05-21T22:34:09.201Z,100.00
2019-05-21T22:36:40.955Z,100.00
2019-05-21T22:39:24.120Z,100.00
2019-05-21T22:41:57.964Z,100.00
2019-05-21T22:44:30.034Z,100.00
2019-05-21T22:47:05.280Z,100.00
2019-05-21T22:49:37.204Z,100.00
2019-05-21T22:52:09.012Z,100.00
2019-05-21T22:54:42.367Z,100.00
2019-05-21T22:57:14.818Z,100.00
2019-05-21T22:59:47.229Z,100.00
2019-05-21T23:02:24.065Z,100.00
2019-05-21T23:04:56.440Z,100.00
2019-05-21T23:07:27.969Z,100.00
2019-05-21T23:10:00.062Z,100.00
2019-05-21T23:12:32.311Z,100.00
2019-05-21T23:15:05.088Z,100.00
2019-05-21T23:17:39.229Z,100.00
2019-05-21T23:20:30.363Z,100.00
2019-05-21T23:23:03.697Z,100.00
2019-05-21T23:25:36.626Z,100.00
2019-05-21T23:28:08.815Z,100.00
2019-05-21T23:30:40.736Z,100.00
2019-05-21T23:33:14.395Z,100.00
2019-05-21T23:35:46.372Z,100.00
2019-05-21T23:38:19.961Z,100.00
2019-05-21T23:40:52.173Z,100.00
2019-05-21T23:43:24.931Z,100.00
2019-05-21T23:45:57.347Z,100.00
2019-05-21T23:48:29.852Z,100.00
2019-05-21T23:51:01.712Z,100.00
2019-05-21T23:53:34.264Z,100.00
2019-05-21T23:56:06.278Z,100.00
2019-05-21T23:58:38.081Z,100.00
